sensor_id;sensor_type;location;lat;lon;timestamp;P1;durP1;ratioP1;P2;durP2;ratioP2
72639;SDS011;60683;51.730;8.762;2023-12-07T00:02:09;23.15;;;11.85;;
72639;SDS011;60683;51.730;8.762;2023-12-07T00:04:39;30.60;;;12.40;;
72639;SDS011;60683;51.730;8.762;2023-12-07T00:07:06;27.20;;;13.15;;
72639;SDS011;60683;51.730;8.762;2023-12-07T00:09:33;29.80;;;13.48;;
72639;SDS011;60683;51.730;8.762;2023-12-07T00:12:00;22.30;;;12.20;;
72639;SDS011;60683;51.730;8.762;2023-12-07T00:14:27;24.70;;;12.10;;
72639;SDS011;60683;51.730;8.762;2023-12-07T00:16:54;20.92;;;10.35;;
72639;SDS011;60683;51.730;8.762;2023-12-07T00:19:21;18.83;;;9.82;;
72639;SDS011;60683;51.730;8.762;2023-12-07T00:21:50;15.52;;;8.05;;
72639;SDS011;60683;51.730;8.762;2023-12-07T00:24:16;21.88;;;11.68;;
72639;SDS011;60683;51.730;8.762;2023-12-07T00:26:43;24.38;;;12.80;;
72639;SDS011;60683;51.730;8.762;2023-12-07T00:29:10;16.83;;;8.98;;
72639;SDS011;60683;51.730;8.762;2023-12-07T00:31:37;23.05;;;9.43;;
72639;SDS011;60683;51.730;8.762;2023-12-07T00:34:03;34.05;;;12.77;;
72639;SDS011;60683;51.730;8.762;2023-12-07T00:36:31;26.17;;;11.63;;
72639;SDS011;60683;51.730;8.762;2023-12-07T00:39:00;33.72;;;14.75;;
72639;SDS011;60683;51.730;8.762;2023-12-07T00:41:27;30.23;;;11.32;;
72639;SDS011;60683;51.730;8.762;2023-12-07T00:43:54;27.77;;;12.57;;
72639;SDS011;60683;51.730;8.762;2023-12-07T00:46:21;33.95;;;14.57;;
72639;SDS011;60683;51.730;8.762;2023-12-07T00:48:48;26.88;;;12.00;;
72639;SDS011;60683;51.730;8.762;2023-12-07T00:51:15;22.45;;;11.70;;
72639;SDS011;60683;51.730;8.762;2023-12-07T00:53:42;29.75;;;12.70;;
72639;SDS011;60683;51.730;8.762;2023-12-07T00:56:11;28.40;;;12.52;;
72639;SDS011;60683;51.730;8.762;2023-12-07T00:58:37;20.15;;;10.80;;
72639;SDS011;60683;51.730;8.762;2023-12-07T01:01:04;28.10;;;12.77;;
72639;SDS011;60683;51.730;8.762;2023-12-07T01:03:31;25.42;;;11.70;;
72639;SDS011;60683;51.730;8.762;2023-12-07T01:05:59;25.92;;;10.98;;
72639;SDS011;60683;51.730;8.762;2023-12-07T01:08:25;23.40;;;12.25;;
72639;SDS011;60683;51.730;8.762;2023-12-07T01:10:53;21.23;;;9.80;;
72639;SDS011;60683;51.730;8.762;2023-12-07T01:13:21;24.35;;;11.15;;
72639;SDS011;60683;51.730;8.762;2023-12-07T01:15:49;27.77;;;10.98;;
72639;SDS011;60683;51.730;8.762;2023-12-07T01:18:16;23.48;;;12.77;;
72639;SDS011;60683;51.730;8.762;2023-12-07T01:20:44;28.35;;;10.45;;
72639;SDS011;60683;51.730;8.762;2023-12-07T01:23:10;21.58;;;11.20;;
72639;SDS011;60683;51.730;8.762;2023-12-07T01:25:37;20.85;;;10.43;;
72639;SDS011;60683;51.730;8.762;2023-12-07T01:28:04;24.17;;;10.88;;
72639;SDS011;60683;51.730;8.762;2023-12-07T01:30:33;24.75;;;12.50;;
72639;SDS011;60683;51.730;8.762;2023-12-07T01:33:01;27.17;;;11.27;;
72639;SDS011;60683;51.730;8.762;2023-12-07T01:35:28;18.25;;;9.48;;
72639;SDS011;60683;51.730;8.762;2023-12-07T01:37:55;25.75;;;11.20;;
72639;SDS011;60683;51.730;8.762;2023-12-07T01:40:22;25.33;;;12.05;;
72639;SDS011;60683;51.730;8.762;2023-12-07T01:42:49;23.35;;;13.05;;
72639;SDS011;60683;51.730;8.762;2023-12-07T01:45:17;28.95;;;11.95;;
72639;SDS011;60683;51.730;8.762;2023-12-07T01:47:46;30.40;;;12.70;;
72639;SDS011;60683;51.730;8.762;2023-12-07T01:50:16;25.65;;;13.10;;
72639;SDS011;60683;51.730;8.762;2023-12-07T01:52:49;25.35;;;12.48;;
72639;SDS011;60683;51.730;8.762;2023-12-07T01:55:19;25.55;;;12.90;;
72639;SDS011;60683;51.730;8.762;2023-12-07T01:57:48;29.27;;;13.15;;
72639;SDS011;60683;51.730;8.762;2023-12-07T02:00:16;27.60;;;13.68;;
72639;SDS011;60683;51.730;8.762;2023-12-07T02:02:43;25.50;;;12.30;;
72639;SDS011;60683;51.730;8.762;2023-12-07T02:05:13;21.48;;;10.00;;
72639;SDS011;60683;51.730;8.762;2023-12-07T02:07:40;34.33;;;12.32;;
72639;SDS011;60683;51.730;8.762;2023-12-07T02:10:08;21.92;;;10.85;;
72639;SDS011;60683;51.730;8.762;2023-12-07T02:12:35;24.75;;;12.90;;
72639;SDS011;60683;51.730;8.762;2023-12-07T02:15:02;29.13;;;12.40;;
72639;SDS011;60683;51.730;8.762;2023-12-07T02:17:32;25.38;;;11.95;;
72639;SDS011;60683;51.730;8.762;2023-12-07T02:20:04;18.02;;;8.80;;
72639;SDS011;60683;51.730;8.762;2023-12-07T02:22:39;27.85;;;12.82;;
72639;SDS011;60683;51.730;8.762;2023-12-07T02:25:09;25.50;;;12.13;;
72639;SDS011;60683;51.730;8.762;2023-12-07T02:27:38;33.10;;;14.45;;
72639;SDS011;60683;51.730;8.762;2023-12-07T02:30:07;21.40;;;10.18;;
72639;SDS011;60683;51.730;8.762;2023-12-07T02:32:35;21.40;;;8.98;;
72639;SDS011;60683;51.730;8.762;2023-12-07T02:35:03;28.23;;;12.48;;
72639;SDS011;60683;51.730;8.762;2023-12-07T02:37:33;32.25;;;13.60;;
72639;SDS011;60683;51.730;8.762;2023-12-07T02:40:05;27.63;;;13.18;;
72639;SDS011;60683;51.730;8.762;2023-12-07T02:42:35;30.88;;;14.13;;
72639;SDS011;60683;51.730;8.762;2023-12-07T02:45:06;32.25;;;13.43;;
72639;SDS011;60683;51.730;8.762;2023-12-07T02:47:34;30.58;;;13.40;;
72639;SDS011;60683;51.730;8.762;2023-12-07T02:50:02;21.15;;;11.45;;
72639;SDS011;60683;51.730;8.762;2023-12-07T02:52:29;33.65;;;14.23;;
72639;SDS011;60683;51.730;8.762;2023-12-07T02:54:56;14.10;;;7.38;;
72639;SDS011;60683;51.730;8.762;2023-12-07T02:57:22;21.95;;;12.00;;
72639;SDS011;60683;51.730;8.762;2023-12-07T02:59:50;33.28;;;14.55;;
72639;SDS011;60683;51.730;8.762;2023-12-07T03:02:18;28.27;;;13.48;;
72639;SDS011;60683;51.730;8.762;2023-12-07T03:04:45;24.92;;;13.38;;
72639;SDS011;60683;51.730;8.762;2023-12-07T03:07:12;27.25;;;13.27;;
72639;SDS011;60683;51.730;8.762;2023-12-07T03:09:40;27.98;;;14.05;;
72639;SDS011;60683;51.730;8.762;2023-12-07T03:12:06;18.25;;;9.32;;
72639;SDS011;60683;51.730;8.762;2023-12-07T03:14:33;23.00;;;12.05;;
72639;SDS011;60683;51.730;8.762;2023-12-07T03:17:00;24.90;;;12.07;;
72639;SDS011;60683;51.730;8.762;2023-12-07T03:19:28;30.42;;;14.48;;
72639;SDS011;60683;51.730;8.762;2023-12-07T03:21:55;30.92;;;13.50;;
72639;SDS011;60683;51.730;8.762;2023-12-07T03:24:23;30.88;;;12.63;;
72639;SDS011;60683;51.730;8.762;2023-12-07T03:26:49;20.15;;;10.15;;
72639;SDS011;60683;51.730;8.762;2023-12-07T03:29:17;32.50;;;13.57;;
72639;SDS011;60683;51.730;8.762;2023-12-07T03:31:43;26.45;;;12.80;;
72639;SDS011;60683;51.730;8.762;2023-12-07T03:34:10;23.23;;;11.77;;
72639;SDS011;60683;51.730;8.762;2023-12-07T03:36:44;28.15;;;15.02;;
72639;SDS011;60683;51.730;8.762;2023-12-07T03:39:12;30.67;;;13.40;;
72639;SDS011;60683;51.730;8.762;2023-12-07T03:41:39;34.40;;;14.82;;
72639;SDS011;60683;51.730;8.762;2023-12-07T03:44:07;24.70;;;10.73;;
72639;SDS011;60683;51.730;8.762;2023-12-07T03:46:34;38.63;;;15.75;;
72639;SDS011;60683;51.730;8.762;2023-12-07T03:49:01;36.20;;;14.77;;
72639;SDS011;60683;51.730;8.762;2023-12-07T03:51:28;26.73;;;14.27;;
72639;SDS011;60683;51.730;8.762;2023-12-07T03:53:57;21.90;;;11.05;;
72639;SDS011;60683;51.730;8.762;2023-12-07T03:56:23;28.15;;;11.63;;
72639;SDS011;60683;51.730;8.762;2023-12-07T03:58:50;31.27;;;15.63;;
72639;SDS011;60683;51.730;8.762;2023-12-07T04:01:17;30.02;;;13.95;;
72639;SDS011;60683;51.730;8.762;2023-12-07T04:03:44;26.67;;;14.25;;
72639;SDS011;60683;51.730;8.762;2023-12-07T04:06:11;33.92;;;14.82;;
72639;SDS011;60683;51.730;8.762;2023-12-07T04:08:39;33.20;;;13.70;;
72639;SDS011;60683;51.730;8.762;2023-12-07T04:11:07;31.05;;;14.50;;
72639;SDS011;60683;51.730;8.762;2023-12-07T04:13:34;32.30;;;15.80;;
72639;SDS011;60683;51.730;8.762;2023-12-07T04:16:01;34.85;;;13.85;;
72639;SDS011;60683;51.730;8.762;2023-12-07T04:18:29;34.45;;;15.60;;
72639;SDS011;60683;51.730;8.762;2023-12-07T04:20:55;31.88;;;13.20;;
72639;SDS011;60683;51.730;8.762;2023-12-07T04:23:22;27.13;;;12.13;;
72639;SDS011;60683;51.730;8.762;2023-12-07T04:25:49;30.65;;;14.35;;
72639;SDS011;60683;51.730;8.762;2023-12-07T04:28:18;25.77;;;11.50;;
72639;SDS011;60683;51.730;8.762;2023-12-07T04:30:45;36.67;;;13.88;;
72639;SDS011;60683;51.730;8.762;2023-12-07T04:33:12;22.33;;;11.95;;
72639;SDS011;60683;51.730;8.762;2023-12-07T04:35:39;29.55;;;12.32;;
72639;SDS011;60683;51.730;8.762;2023-12-07T04:38:06;26.65;;;12.73;;
72639;SDS011;60683;51.730;8.762;2023-12-07T04:40:33;35.17;;;14.60;;
72639;SDS011;60683;51.730;8.762;2023-12-07T04:43:00;29.50;;;13.25;;
72639;SDS011;60683;51.730;8.762;2023-12-07T04:45:28;30.70;;;13.32;;
72639;SDS011;60683;51.730;8.762;2023-12-07T04:47:55;26.25;;;11.90;;
72639;SDS011;60683;51.730;8.762;2023-12-07T04:50:23;33.63;;;12.65;;
72639;SDS011;60683;51.730;8.762;2023-12-07T04:52:50;25.92;;;12.48;;
72639;SDS011;60683;51.730;8.762;2023-12-07T04:55:18;29.00;;;14.35;;
72639;SDS011;60683;51.730;8.762;2023-12-07T04:57:45;30.17;;;12.70;;
72639;SDS011;60683;51.730;8.762;2023-12-07T05:00:12;30.73;;;12.25;;
72639;SDS011;60683;51.730;8.762;2023-12-07T05:02:41;22.10;;;11.57;;
72639;SDS011;60683;51.730;8.762;2023-12-07T05:05:08;26.38;;;11.45;;
72639;SDS011;60683;51.730;8.762;2023-12-07T05:07:35;28.10;;;11.70;;
72639;SDS011;60683;51.730;8.762;2023-12-07T05:10:02;28.38;;;12.68;;
72639;SDS011;60683;51.730;8.762;2023-12-07T05:12:30;35.22;;;13.65;;
72639;SDS011;60683;51.730;8.762;2023-12-07T05:14:56;31.70;;;13.63;;
72639;SDS011;60683;51.730;8.762;2023-12-07T05:17:24;25.83;;;13.63;;
72639;SDS011;60683;51.730;8.762;2023-12-07T05:19:52;31.90;;;14.55;;
72639;SDS011;60683;51.730;8.762;2023-12-07T05:22:19;27.63;;;11.40;;
72639;SDS011;60683;51.730;8.762;2023-12-07T05:24:46;28.90;;;13.77;;
72639;SDS011;60683;51.730;8.762;2023-12-07T05:27:14;26.50;;;12.13;;
72639;SDS011;60683;51.730;8.762;2023-12-07T05:29:41;30.70;;;13.57;;
72639;SDS011;60683;51.730;8.762;2023-12-07T05:32:08;31.83;;;13.38;;
72639;SDS011;60683;51.730;8.762;2023-12-07T05:34:35;27.20;;;12.10;;
72639;SDS011;60683;51.730;8.762;2023-12-07T05:37:03;25.65;;;11.82;;
72639;SDS011;60683;51.730;8.762;2023-12-07T05:39:30;31.80;;;13.13;;
72639;SDS011;60683;51.730;8.762;2023-12-07T05:41:57;22.85;;;10.98;;
72639;SDS011;60683;51.730;8.762;2023-12-07T05:44:24;35.00;;;13.35;;
72639;SDS011;60683;51.730;8.762;2023-12-07T05:46:51;26.48;;;14.00;;
72639;SDS011;60683;51.730;8.762;2023-12-07T05:49:18;26.30;;;12.43;;
72639;SDS011;60683;51.730;8.762;2023-12-07T05:51:48;33.33;;;14.00;;
72639;SDS011;60683;51.730;8.762;2023-12-07T05:54:16;24.58;;;12.13;;
72639;SDS011;60683;51.730;8.762;2023-12-07T05:56:46;30.27;;;13.38;;
72639;SDS011;60683;51.730;8.762;2023-12-07T05:59:12;34.45;;;13.43;;
72639;SDS011;60683;51.730;8.762;2023-12-07T06:01:39;33.20;;;14.38;;
72639;SDS011;60683;51.730;8.762;2023-12-07T06:04:07;27.70;;;12.63;;
72639;SDS011;60683;51.730;8.762;2023-12-07T06:06:35;37.95;;;14.82;;
72639;SDS011;60683;51.730;8.762;2023-12-07T06:09:02;28.48;;;13.43;;
72639;SDS011;60683;51.730;8.762;2023-12-07T06:11:32;27.58;;;13.52;;
72639;SDS011;60683;51.730;8.762;2023-12-07T06:13:59;31.55;;;13.60;;
72639;SDS011;60683;51.730;8.762;2023-12-07T06:16:26;30.40;;;13.10;;
72639;SDS011;60683;51.730;8.762;2023-12-07T06:18:53;25.38;;;12.20;;
72639;SDS011;60683;51.730;8.762;2023-12-07T06:21:20;31.13;;;13.60;;
72639;SDS011;60683;51.730;8.762;2023-12-07T06:23:47;33.78;;;13.63;;
72639;SDS011;60683;51.730;8.762;2023-12-07T06:26:14;30.13;;;12.27;;
72639;SDS011;60683;51.730;8.762;2023-12-07T06:28:42;38.70;;;13.75;;
72639;SDS011;60683;51.730;8.762;2023-12-07T06:31:11;26.85;;;12.65;;
72639;SDS011;60683;51.730;8.762;2023-12-07T06:36:07;29.55;;;13.30;;
72639;SDS011;60683;51.730;8.762;2023-12-07T06:38:34;26.33;;;11.82;;
72639;SDS011;60683;51.730;8.762;2023-12-07T06:41:02;32.17;;;13.25;;
72639;SDS011;60683;51.730;8.762;2023-12-07T06:43:28;30.95;;;11.85;;
72639;SDS011;60683;51.730;8.762;2023-12-07T06:45:57;33.05;;;13.30;;
72639;SDS011;60683;51.730;8.762;2023-12-07T06:48:24;34.15;;;13.70;;
72639;SDS011;60683;51.730;8.762;2023-12-07T06:50:50;27.92;;;11.23;;
72639;SDS011;60683;51.730;8.762;2023-12-07T06:53:17;31.30;;;12.75;;
72639;SDS011;60683;51.730;8.762;2023-12-07T06:55:45;32.05;;;12.80;;
72639;SDS011;60683;51.730;8.762;2023-12-07T06:58:11;33.33;;;13.45;;
72639;SDS011;60683;51.730;8.762;2023-12-07T07:00:38;30.13;;;13.15;;
72639;SDS011;60683;51.730;8.762;2023-12-07T07:03:06;29.55;;;12.82;;
72639;SDS011;60683;51.730;8.762;2023-12-07T07:05:34;29.40;;;12.30;;
72639;SDS011;60683;51.730;8.762;2023-12-07T07:08:01;26.77;;;11.77;;
72639;SDS011;60683;51.730;8.762;2023-12-07T07:10:28;32.78;;;12.57;;
72639;SDS011;60683;51.730;8.762;2023-12-07T07:12:55;32.50;;;13.25;;
72639;SDS011;60683;51.730;8.762;2023-12-07T07:15:27;31.13;;;12.40;;
72639;SDS011;60683;51.730;8.762;2023-12-07T07:17:54;37.10;;;12.45;;
72639;SDS011;60683;51.730;8.762;2023-12-07T07:20:23;27.35;;;12.23;;
72639;SDS011;60683;51.730;8.762;2023-12-07T07:22:50;30.63;;;14.23;;
72639;SDS011;60683;51.730;8.762;2023-12-07T07:25:17;31.33;;;13.73;;
72639;SDS011;60683;51.730;8.762;2023-12-07T07:27:45;33.60;;;14.25;;
72639;SDS011;60683;51.730;8.762;2023-12-07T07:30:12;29.55;;;11.77;;
72639;SDS011;60683;51.730;8.762;2023-12-07T07:32:39;26.63;;;11.60;;
72639;SDS011;60683;51.730;8.762;2023-12-07T07:35:07;29.15;;;12.60;;
72639;SDS011;60683;51.730;8.762;2023-12-07T07:37:38;29.02;;;12.70;;
72639;SDS011;60683;51.730;8.762;2023-12-07T07:40:07;29.77;;;11.93;;
72639;SDS011;60683;51.730;8.762;2023-12-07T07:42:37;27.42;;;12.68;;
72639;SDS011;60683;51.730;8.762;2023-12-07T07:45:04;30.30;;;11.73;;
72639;SDS011;60683;51.730;8.762;2023-12-07T07:47:32;32.22;;;11.98;;
72639;SDS011;60683;51.730;8.762;2023-12-07T07:49:59;32.70;;;12.65;;
72639;SDS011;60683;51.730;8.762;2023-12-07T07:52:30;30.73;;;13.27;;
72639;SDS011;60683;51.730;8.762;2023-12-07T07:55:00;31.73;;;12.93;;
72639;SDS011;60683;51.730;8.762;2023-12-07T07:57:28;33.92;;;12.38;;
72639;SDS011;60683;51.730;8.762;2023-12-07T07:59:56;31.88;;;13.90;;
72639;SDS011;60683;51.730;8.762;2023-12-07T08:02:23;25.58;;;12.02;;
72639;SDS011;60683;51.730;8.762;2023-12-07T08:04:50;30.60;;;12.52;;
72639;SDS011;60683;51.730;8.762;2023-12-07T08:07:17;33.53;;;13.80;;
72639;SDS011;60683;51.730;8.762;2023-12-07T08:09:44;25.30;;;12.75;;
72639;SDS011;60683;51.730;8.762;2023-12-07T08:12:14;27.02;;;12.20;;
72639;SDS011;60683;51.730;8.762;2023-12-07T08:14:41;29.02;;;10.68;;
72639;SDS011;60683;51.730;8.762;2023-12-07T08:17:09;36.60;;;14.20;;
72639;SDS011;60683;51.730;8.762;2023-12-07T08:19:37;32.53;;;13.68;;
72639;SDS011;60683;51.730;8.762;2023-12-07T08:22:04;32.10;;;14.27;;
72639;SDS011;60683;51.730;8.762;2023-12-07T08:24:31;29.88;;;12.45;;
72639;SDS011;60683;51.730;8.762;2023-12-07T08:26:58;32.92;;;12.73;;
72639;SDS011;60683;51.730;8.762;2023-12-07T08:29:27;29.35;;;12.75;;
72639;SDS011;60683;51.730;8.762;2023-12-07T08:31:54;30.10;;;13.75;;
72639;SDS011;60683;51.730;8.762;2023-12-07T08:34:21;29.23;;;12.18;;
72639;SDS011;60683;51.730;8.762;2023-12-07T08:36:50;34.05;;;12.57;;
72639;SDS011;60683;51.730;8.762;2023-12-07T08:39:18;28.48;;;11.40;;
72639;SDS011;60683;51.730;8.762;2023-12-07T08:41:45;27.40;;;12.38;;
72639;SDS011;60683;51.730;8.762;2023-12-07T08:44:12;31.50;;;11.73;;
72639;SDS011;60683;51.730;8.762;2023-12-07T08:46:40;29.20;;;12.07;;
72639;SDS011;60683;51.730;8.762;2023-12-07T08:49:10;29.63;;;11.30;;
72639;SDS011;60683;51.730;8.762;2023-12-07T08:51:37;25.17;;;10.75;;
72639;SDS011;60683;51.730;8.762;2023-12-07T08:54:04;26.80;;;12.57;;
72639;SDS011;60683;51.730;8.762;2023-12-07T08:56:31;29.92;;;12.70;;
72639;SDS011;60683;51.730;8.762;2023-12-07T08:58:57;23.33;;;11.15;;
72639;SDS011;60683;51.730;8.762;2023-12-07T09:01:24;27.35;;;12.50;;
72639;SDS011;60683;51.730;8.762;2023-12-07T09:03:54;25.27;;;11.63;;
72639;SDS011;60683;51.730;8.762;2023-12-07T09:06:20;26.42;;;9.10;;
72639;SDS011;60683;51.730;8.762;2023-12-07T09:08:47;22.65;;;11.05;;
72639;SDS011;60683;51.730;8.762;2023-12-07T09:11:14;20.25;;;8.82;;
72639;SDS011;60683;51.730;8.762;2023-12-07T09:13:41;22.58;;;10.93;;
72639;SDS011;60683;51.730;8.762;2023-12-07T09:16:08;21.90;;;9.38;;
72639;SDS011;60683;51.730;8.762;2023-12-07T09:18:35;20.70;;;9.43;;
72639;SDS011;60683;51.730;8.762;2023-12-07T09:21:03;26.55;;;9.45;;
72639;SDS011;60683;51.730;8.762;2023-12-07T09:23:30;17.35;;;8.23;;
72639;SDS011;60683;51.730;8.762;2023-12-07T09:25:57;26.67;;;8.98;;
72639;SDS011;60683;51.730;8.762;2023-12-07T09:28:24;21.30;;;9.55;;
72639;SDS011;60683;51.730;8.762;2023-12-07T09:30:51;20.17;;;9.32;;
72639;SDS011;60683;51.730;8.762;2023-12-07T09:33:18;15.88;;;7.47;;
72639;SDS011;60683;51.730;8.762;2023-12-07T09:35:45;16.48;;;6.28;;
72639;SDS011;60683;51.730;8.762;2023-12-07T09:38:14;10.50;;;5.70;;
72639;SDS011;60683;51.730;8.762;2023-12-07T09:40:41;15.25;;;6.97;;
72639;SDS011;60683;51.730;8.762;2023-12-07T09:43:09;10.70;;;5.68;;
72639;SDS011;60683;51.730;8.762;2023-12-07T09:45:37;14.90;;;7.25;;
72639;SDS011;60683;51.730;8.762;2023-12-07T09:48:05;15.20;;;6.45;;
72639;SDS011;60683;51.730;8.762;2023-12-07T09:50:33;16.25;;;7.82;;
72639;SDS011;60683;51.730;8.762;2023-12-07T09:53:01;14.98;;;6.95;;
72639;SDS011;60683;51.730;8.762;2023-12-07T09:55:29;12.88;;;5.95;;
72639;SDS011;60683;51.730;8.762;2023-12-07T09:57:56;15.90;;;6.50;;
72639;SDS011;60683;51.730;8.762;2023-12-07T10:00:23;12.88;;;5.68;;
72639;SDS011;60683;51.730;8.762;2023-12-07T10:02:51;15.23;;;5.90;;
72639;SDS011;60683;51.730;8.762;2023-12-07T10:05:18;10.25;;;5.25;;
72639;SDS011;60683;51.730;8.762;2023-12-07T10:07:46;16.67;;;7.05;;
72639;SDS011;60683;51.730;8.762;2023-12-07T10:10:16;14.10;;;6.55;;
72639;SDS011;60683;51.730;8.762;2023-12-07T10:12:45;14.93;;;6.82;;
72639;SDS011;60683;51.730;8.762;2023-12-07T10:15:14;16.10;;;5.55;;
72639;SDS011;60683;51.730;8.762;2023-12-07T10:17:45;12.00;;;7.10;;
72639;SDS011;60683;51.730;8.762;2023-12-07T10:20:14;11.73;;;6.18;;
72639;SDS011;60683;51.730;8.762;2023-12-07T10:22:42;13.57;;;6.85;;
72639;SDS011;60683;51.730;8.762;2023-12-07T10:25:10;15.10;;;6.30;;
72639;SDS011;60683;51.730;8.762;2023-12-07T10:27:38;12.38;;;6.32;;
72639;SDS011;60683;51.730;8.762;2023-12-07T10:30:12;14.80;;;7.18;;
72639;SDS011;60683;51.730;8.762;2023-12-07T10:32:39;14.65;;;7.07;;
72639;SDS011;60683;51.730;8.762;2023-12-07T10:35:07;14.75;;;5.93;;
72639;SDS011;60683;51.730;8.762;2023-12-07T10:37:35;16.08;;;7.18;;
72639;SDS011;60683;51.730;8.762;2023-12-07T10:40:03;15.25;;;6.28;;
72639;SDS011;60683;51.730;8.762;2023-12-07T10:42:33;14.57;;;6.72;;
72639;SDS011;60683;51.730;8.762;2023-12-07T10:45:03;14.45;;;6.22;;
72639;SDS011;60683;51.730;8.762;2023-12-07T10:47:34;9.32;;;4.25;;
72639;SDS011;60683;51.730;8.762;2023-12-07T10:50:02;8.15;;;3.60;;
72639;SDS011;60683;51.730;8.762;2023-12-07T10:52:37;12.13;;;5.25;;
72639;SDS011;60683;51.730;8.762;2023-12-07T10:55:12;12.73;;;6.20;;
72639;SDS011;60683;51.730;8.762;2023-12-07T10:57:43;14.85;;;5.95;;
72639;SDS011;60683;51.730;8.762;2023-12-07T11:00:12;12.52;;;5.72;;
72639;SDS011;60683;51.730;8.762;2023-12-07T11:02:41;11.57;;;4.55;;
72639;SDS011;60683;51.730;8.762;2023-12-07T11:05:10;10.88;;;5.70;;
72639;SDS011;60683;51.730;8.762;2023-12-07T11:07:40;10.55;;;4.30;;
72639;SDS011;60683;51.730;8.762;2023-12-07T11:10:15;9.65;;;4.32;;
72639;SDS011;60683;51.730;8.762;2023-12-07T11:12:49;11.35;;;4.75;;
72639;SDS011;60683;51.730;8.762;2023-12-07T11:15:22;10.65;;;4.43;;
72639;SDS011;60683;51.730;8.762;2023-12-07T11:17:51;9.27;;;4.55;;
72639;SDS011;60683;51.730;8.762;2023-12-07T11:20:20;11.07;;;4.90;;
72639;SDS011;60683;51.730;8.762;2023-12-07T11:22:48;11.00;;;4.40;;
72639;SDS011;60683;51.730;8.762;2023-12-07T11:25:17;10.93;;;4.57;;
72639;SDS011;60683;51.730;8.762;2023-12-07T11:27:44;10.50;;;4.45;;
72639;SDS011;60683;51.730;8.762;2023-12-07T11:30:16;8.98;;;4.45;;
72639;SDS011;60683;51.730;8.762;2023-12-07T11:32:43;9.40;;;4.93;;
72639;SDS011;60683;51.730;8.762;2023-12-07T11:35:12;9.13;;;4.97;;
72639;SDS011;60683;51.730;8.762;2023-12-07T11:40:34;8.02;;;4.40;;
72639;SDS011;60683;51.730;8.762;2023-12-07T11:43:02;9.82;;;4.18;;
72639;SDS011;60683;51.730;8.762;2023-12-07T11:45:37;8.55;;;4.60;;
72639;SDS011;60683;51.730;8.762;2023-12-07T11:48:09;8.00;;;4.15;;
72639;SDS011;60683;51.730;8.762;2023-12-07T11:50:45;9.32;;;4.63;;
72639;SDS011;60683;51.730;8.762;2023-12-07T11:53:21;8.73;;;4.03;;
72639;SDS011;60683;51.730;8.762;2023-12-07T11:55:49;5.72;;;3.15;;
72639;SDS011;60683;51.730;8.762;2023-12-07T11:58:17;7.95;;;3.80;;
72639;SDS011;60683;51.730;8.762;2023-12-07T12:00:43;11.63;;;4.32;;
72639;SDS011;60683;51.730;8.762;2023-12-07T12:03:12;8.07;;;3.22;;
72639;SDS011;60683;51.730;8.762;2023-12-07T12:05:39;6.47;;;3.50;;
72639;SDS011;60683;51.730;8.762;2023-12-07T12:08:07;7.78;;;3.88;;
72639;SDS011;60683;51.730;8.762;2023-12-07T12:10:34;8.15;;;3.67;;
72639;SDS011;60683;51.730;8.762;2023-12-07T12:13:02;7.40;;;3.55;;
72639;SDS011;60683;51.730;8.762;2023-12-07T12:15:30;9.20;;;4.25;;
72639;SDS011;60683;51.730;8.762;2023-12-07T12:17:58;6.88;;;3.83;;
72639;SDS011;60683;51.730;8.762;2023-12-07T12:20:25;6.10;;;3.70;;
72639;SDS011;60683;51.730;8.762;2023-12-07T12:22:53;6.25;;;3.33;;
72639;SDS011;60683;51.730;8.762;2023-12-07T12:25:23;7.22;;;3.45;;
72639;SDS011;60683;51.730;8.762;2023-12-07T12:27:54;7.70;;;3.55;;
72639;SDS011;60683;51.730;8.762;2023-12-07T12:30:22;6.68;;;4.18;;
72639;SDS011;60683;51.730;8.762;2023-12-07T12:32:50;9.50;;;4.07;;
72639;SDS011;60683;51.730;8.762;2023-12-07T12:35:17;7.03;;;4.28;;
72639;SDS011;60683;51.730;8.762;2023-12-07T12:37:45;7.38;;;3.45;;
72639;SDS011;60683;51.730;8.762;2023-12-07T12:40:14;7.13;;;3.58;;
72639;SDS011;60683;51.730;8.762;2023-12-07T12:42:45;7.38;;;3.28;;
72639;SDS011;60683;51.730;8.762;2023-12-07T12:45:13;6.38;;;3.35;;
72639;SDS011;60683;51.730;8.762;2023-12-07T12:47:41;6.35;;;3.70;;
72639;SDS011;60683;51.730;8.762;2023-12-07T12:50:10;7.15;;;3.83;;
72639;SDS011;60683;51.730;8.762;2023-12-07T12:52:39;6.85;;;3.08;;
72639;SDS011;60683;51.730;8.762;2023-12-07T12:55:07;7.35;;;3.50;;
72639;SDS011;60683;51.730;8.762;2023-12-07T12:57:36;6.28;;;2.72;;
72639;SDS011;60683;51.730;8.762;2023-12-07T13:00:06;6.65;;;2.88;;
72639;SDS011;60683;51.730;8.762;2023-12-07T13:02:34;6.15;;;3.00;;
72639;SDS011;60683;51.730;8.762;2023-12-07T13:05:01;6.50;;;3.20;;
72639;SDS011;60683;51.730;8.762;2023-12-07T13:07:28;6.03;;;2.95;;
72639;SDS011;60683;51.730;8.762;2023-12-07T13:09:55;5.45;;;2.67;;
72639;SDS011;60683;51.730;8.762;2023-12-07T13:12:23;5.60;;;3.03;;
72639;SDS011;60683;51.730;8.762;2023-12-07T13:14:53;5.78;;;2.53;;
72639;SDS011;60683;51.730;8.762;2023-12-07T13:17:22;8.38;;;3.35;;
72639;SDS011;60683;51.730;8.762;2023-12-07T13:19:49;7.13;;;3.22;;
72639;SDS011;60683;51.730;8.762;2023-12-07T13:22:16;7.10;;;2.83;;
72639;SDS011;60683;51.730;8.762;2023-12-07T13:24:45;7.45;;;3.10;;
72639;SDS011;60683;51.730;8.762;2023-12-07T13:27:15;4.82;;;2.25;;
72639;SDS011;60683;51.730;8.762;2023-12-07T13:29:43;4.80;;;2.25;;
72639;SDS011;60683;51.730;8.762;2023-12-07T13:32:10;4.50;;;2.10;;
72639;SDS011;60683;51.730;8.762;2023-12-07T13:34:38;5.13;;;2.58;;
72639;SDS011;60683;51.730;8.762;2023-12-07T13:37:06;6.43;;;2.25;;
72639;SDS011;60683;51.730;8.762;2023-12-07T13:39:33;3.45;;;1.67;;
72639;SDS011;60683;51.730;8.762;2023-12-07T13:42:02;2.75;;;1.58;;
72639;SDS011;60683;51.730;8.762;2023-12-07T13:44:29;7.20;;;2.47;;
72639;SDS011;60683;51.730;8.762;2023-12-07T13:46:58;2.97;;;1.60;;
72639;SDS011;60683;51.730;8.762;2023-12-07T13:49:25;5.90;;;2.53;;
72639;SDS011;60683;51.730;8.762;2023-12-07T13:51:53;6.20;;;2.58;;
72639;SDS011;60683;51.730;8.762;2023-12-07T13:54:22;6.18;;;2.63;;
72639;SDS011;60683;51.730;8.762;2023-12-07T13:56:49;5.13;;;1.75;;
72639;SDS011;60683;51.730;8.762;2023-12-07T13:59:15;6.20;;;2.70;;
72639;SDS011;60683;51.730;8.762;2023-12-07T14:01:43;5.32;;;2.85;;
72639;SDS011;60683;51.730;8.762;2023-12-07T14:04:10;4.50;;;2.00;;
72639;SDS011;60683;51.730;8.762;2023-12-07T14:06:36;5.57;;;2.08;;
72639;SDS011;60683;51.730;8.762;2023-12-07T14:09:05;7.90;;;2.95;;
72639;SDS011;60683;51.730;8.762;2023-12-07T14:11:32;5.70;;;2.40;;
72639;SDS011;60683;51.730;8.762;2023-12-07T14:13:59;5.78;;;1.58;;
72639;SDS011;60683;51.730;8.762;2023-12-07T14:16:26;4.88;;;2.53;;
72639;SDS011;60683;51.730;8.762;2023-12-07T14:18:53;5.05;;;2.45;;
72639;SDS011;60683;51.730;8.762;2023-12-07T14:21:21;7.63;;;3.05;;
72639;SDS011;60683;51.730;8.762;2023-12-07T14:23:48;4.20;;;2.35;;
72639;SDS011;60683;51.730;8.762;2023-12-07T14:26:17;5.72;;;2.50;;
72639;SDS011;60683;51.730;8.762;2023-12-07T14:28:43;4.60;;;1.23;;
72639;SDS011;60683;51.730;8.762;2023-12-07T14:31:11;6.72;;;2.97;;
72639;SDS011;60683;51.730;8.762;2023-12-07T14:33:42;8.88;;;3.70;;
72639;SDS011;60683;51.730;8.762;2023-12-07T14:36:10;6.93;;;2.97;;
72639;SDS011;60683;51.730;8.762;2023-12-07T14:38:37;5.03;;;3.17;;
72639;SDS011;60683;51.730;8.762;2023-12-07T14:41:05;7.00;;;2.80;;